createdAt,value
2017-11-22T00:01:25.805Z,6.90
2017-11-22T00:03:53.450Z,7.00
2017-11-22T00:06:20.954Z,7.00
2017-11-22T00:08:48.437Z,7.00
2017-11-22T00:11:16.694Z,7.00
2017-11-22T00:13:44.393Z,7.00
2017-11-22T00:16:12.058Z,7.00
2017-11-22T00:18:40.335Z,7.00
2017-11-22T00:21:07.925Z,7.00
2017-11-22T00:23:35.395Z,7.00
2017-11-22T00:26:02.898Z,7.00
2017-11-22T00:28:30.388Z,7.00
2017-11-22T00:30:58.832Z,7.00
2017-11-22T00:33:27.135Z,7.00
2017-11-22T00:35:54.781Z,7.00
2017-11-22T00:38:22.318Z,7.00
2017-11-22T00:40:50.002Z,7.00
2017-11-22T00:43:17.774Z,7.00
2017-11-22T00:45:46.047Z,7.00
2017-11-22T00:48:14.290Z,7.00
2017-11-22T00:50:42.027Z,7.00
2017-11-22T00:53:09.513Z,7.00
2017-11-22T00:55:36.994Z,6.90
2017-11-22T00:58:05.265Z,7.00
2017-11-22T01:00:32.866Z,6.90
2017-11-22T01:03:00.363Z,6.90
2017-11-22T01:05:27.865Z,7.00
2017-11-22T01:07:55.366Z,7.00
2017-11-22T01:10:22.865Z,7.00
2017-11-22T01:12:50.371Z,7.10
2017-11-22T01:15:17.882Z,7.10
2017-11-22T01:17:46.146Z,7.10
2017-11-22T01:20:13.642Z,7.10
2017-11-22T01:22:41.194Z,7.10
2017-11-22T01:25:08.671Z,7.20
2017-11-22T01:27:36.165Z,7.20
2017-11-22T01:30:03.664Z,7.20
2017-11-22T01:32:32.046Z,7.20
2017-11-22T01:34:59.909Z,7.20
2017-11-22T01:37:27.568Z,7.30
2017-11-22T01:39:55.849Z,7.30
2017-11-22T01:42:24.224Z,7.30
2017-11-22T01:44:52.580Z,7.40
2017-11-22T01:47:20.091Z,7.30
2017-11-22T01:49:48.107Z,7.40
2017-11-22T01:52:16.384Z,7.40
2017-11-22T01:54:44.083Z,7.40
2017-11-22T01:57:11.597Z,7.50
2017-11-22T01:59:39.103Z,7.50
2017-11-22T02:02:07.401Z,7.50
2017-11-22T02:04:34.921Z,7.60
2017-11-22T02:07:02.437Z,7.60
2017-11-22T02:09:29.958Z,7.60
2017-11-22T02:11:57.505Z,7.60
2017-11-22T02:14:25.769Z,7.70
2017-11-22T02:16:53.340Z,7.70
2017-11-22T02:19:21.604Z,7.80
2017-11-22T02:21:49.074Z,7.70
2017-11-22T02:24:17.650Z,7.80
2017-11-22T02:26:46.387Z,7.80
2017-11-22T02:29:14.025Z,7.80
2017-11-22T02:31:41.534Z,7.80
2017-11-22T02:34:09.022Z,7.90
2017-11-22T02:36:36.759Z,7.90
2017-11-22T02:39:04.238Z,7.90
2017-11-22T02:41:31.929Z,7.90
2017-11-22T02:43:59.612Z,7.90
2017-11-22T02:46:27.106Z,7.90
2017-11-22T02:48:54.732Z,7.90
2017-11-22T02:51:22.350Z,8.00
2017-11-22T02:53:49.848Z,8.00
2017-11-22T02:56:17.416Z,8.00
2017-11-22T02:58:44.917Z,8.10
2017-11-22T03:01:12.449Z,8.20
2017-11-22T03:03:39.941Z,8.20
2017-11-22T03:06:08.213Z,8.60
2017-11-22T03:08:35.694Z,8.60
2017-11-22T03:11:03.188Z,8.90
2017-11-22T03:13:30.694Z,8.90
2017-11-22T03:15:58.940Z,9.00
2017-11-22T03:18:26.468Z,9.00
2017-11-22T03:20:53.949Z,9.10
2017-11-22T03:23:21.499Z,9.20
2017-11-22T03:25:49.098Z,9.20
2017-11-22T03:28:16.680Z,9.30
2017-11-22T03:30:44.582Z,9.40
2017-11-22T03:33:12.205Z,9.40
2017-11-22T03:35:39.704Z,9.40
2017-11-22T03:38:07.197Z,9.40
2017-11-22T03:40:34.677Z,9.40
2017-11-22T03:43:02.364Z,9.40
2017-11-22T03:45:29.867Z,9.40
2017-11-22T03:47:57.355Z,9.40
2017-11-22T03:50:30.651Z,9.50
2017-11-22T03:53:03.948Z,9.50
2017-11-22T03:55:31.615Z,9.50
2017-11-22T03:57:59.287Z,9.40
2017-11-22T04:00:29.566Z,9.40
2017-11-22T04:03:02.644Z,9.40
2017-11-22T04:05:32.906Z,9.40
2017-11-22T04:08:01.216Z,9.40
2017-11-22T04:10:28.720Z,9.40
2017-11-22T04:12:56.338Z,9.40
2017-11-22T04:15:23.880Z,9.50
2017-11-22T04:17:55.290Z,9.50
2017-11-22T04:20:28.549Z,9.50
2017-11-22T04:22:56.028Z,9.40
2017-11-22T04:25:23.525Z,9.50
2017-11-22T04:27:51.769Z,9.40
2017-11-22T04:30:19.337Z,9.40
2017-11-22T04:32:46.918Z,9.40
2017-11-22T04:35:14.511Z,9.40
2017-11-22T04:37:42.146Z,9.30
2017-11-22T04:40:11.141Z,9.40
2017-11-22T04:42:38.670Z,9.40
2017-11-22T04:45:06.190Z,9.40
2017-11-22T04:47:33.701Z,9.40
2017-11-22T04:50:01.298Z,9.30
2017-11-22T04:52:29.553Z,9.30
2017-11-22T04:54:57.046Z,9.30
2017-11-22T04:57:24.548Z,9.30
2017-11-22T04:59:53.304Z,9.30
2017-11-22T05:02:21.665Z,9.30
2017-11-22T05:04:49.157Z,9.30
2017-11-22T05:07:16.653Z,9.30
2017-11-22T05:09:45.062Z,9.30
2017-11-22T05:12:12.564Z,9.20
2017-11-22T05:14:40.091Z,9.30
2017-11-22T05:17:09.382Z,9.30
2017-11-22T05:19:36.879Z,9.30
2017-11-22T05:22:04.437Z,9.30
2017-11-22T05:24:31.910Z,9.30
2017-11-22T05:26:59.434Z,9.20
2017-11-22T05:29:26.954Z,9.30
2017-11-22T05:31:54.552Z,9.30
2017-11-22T05:34:22.061Z,9.20
2017-11-22T05:36:49.578Z,9.20
2017-11-22T05:39:17.085Z,9.20
2017-11-22T05:41:45.361Z,9.20
2017-11-22T05:44:12.862Z,9.20
2017-11-22T05:46:40.379Z,9.10
2017-11-22T05:49:07.966Z,9.10
2017-11-22T05:51:35.514Z,9.10
2017-11-22T05:54:03.169Z,9.10
2017-11-22T05:56:31.492Z,9.10
2017-11-22T05:58:59.105Z,9.10
2017-11-22T06:01:27.868Z,9.00
2017-11-22T06:03:55.370Z,9.00
2017-11-22T06:06:22.861Z,9.00
2017-11-22T06:08:50.342Z,9.10
2017-11-22T06:11:18.237Z,9.00
2017-11-22T06:13:46.500Z,9.00
2017-11-22T06:16:14.760Z,9.00
2017-11-22T06:18:42.377Z,9.00
2017-11-22T06:21:09.858Z,9.00
2017-11-22T06:23:37.388Z,9.00
2017-11-22T06:26:06.740Z,9.00
2017-11-22T06:28:34.246Z,9.00
2017-11-22T06:31:01.836Z,9.00
2017-11-22T06:33:29.338Z,9.00
2017-11-22T06:35:56.836Z,9.00
2017-11-22T06:38:24.392Z,9.00
2017-11-22T06:40:51.911Z,8.90
2017-11-22T06:43:21.366Z,9.00
2017-11-22T06:45:48.985Z,9.00
2017-11-22T06:48:16.494Z,8.90
2017-11-22T06:50:43.997Z,9.00
2017-11-22T06:53:11.709Z,9.00
2017-11-22T06:55:39.195Z,9.00
2017-11-22T06:58:06.703Z,9.00
2017-11-22T07:00:35.111Z,8.90
2017-11-22T07:03:02.674Z,8.90
2017-11-22T07:05:30.149Z,8.90
2017-11-22T07:07:57.856Z,8.90
2017-11-22T07:10:25.402Z,8.90
2017-11-22T07:12:53.074Z,8.90
2017-11-22T07:15:21.338Z,8.80
2017-11-22T07:17:49.836Z,8.80
2017-11-22T07:20:17.358Z,8.80
2017-11-22T07:22:44.971Z,8.80
2017-11-22T07:25:12.486Z,8.80
2017-11-22T07:27:39.974Z,8.70
2017-11-22T07:30:07.458Z,8.70
2017-11-22T07:32:35.101Z,8.70
2017-11-22T07:35:02.619Z,8.70
2017-11-22T07:37:35.697Z,8.70
2017-11-22T07:40:03.442Z,8.80
2017-11-22T07:42:31.084Z,8.80
2017-11-22T07:44:58.632Z,8.80
2017-11-22T07:47:26.209Z,8.80
2017-11-22T07:49:54.029Z,8.80
2017-11-22T07:52:22.548Z,8.80
2017-11-22T07:54:51.362Z,8.90
2017-11-22T07:57:24.649Z,8.90
2017-11-22T07:59:52.218Z,9.00
2017-11-22T08:02:19.729Z,9.00
2017-11-22T08:04:47.412Z,9.00
2017-11-22T08:07:14.926Z,9.10
2017-11-22T08:09:42.609Z,9.10
2017-11-22T08:12:10.217Z,9.20
2017-11-22T08:14:37.809Z,9.30
2017-11-22T08:17:05.376Z,9.30
2017-11-22T08:19:33.824Z,9.40
2017-11-22T08:22:01.309Z,9.30
2017-11-22T08:24:29.957Z,9.40
2017-11-22T08:26:57.627Z,9.40
2017-11-22T08:29:25.114Z,9.40
2017-11-22T08:31:52.608Z,9.40
2017-11-22T08:34:20.100Z,9.40
2017-11-22T08:36:47.585Z,9.40
2017-11-22T08:39:15.329Z,9.40
2017-11-22T08:41:42.811Z,9.40
2017-11-22T08:44:10.413Z,9.50
2017-11-22T08:46:37.896Z,9.50
2017-11-22T08:49:05.389Z,9.50
2017-11-22T08:51:32.885Z,9.50
2017-11-22T08:54:06.072Z,9.50
2017-11-22T08:56:34.568Z,9.50
2017-11-22T08:59:02.830Z,9.40
2017-11-22T09:01:30.432Z,9.40
2017-11-22T09:03:57.921Z,9.40
2017-11-22T09:06:30.221Z,9.40
2017-11-22T09:08:57.758Z,9.50
2017-11-22T09:11:25.278Z,9.50
2017-11-22T09:13:52.765Z,9.50
2017-11-22T09:16:20.876Z,9.60
2017-11-22T09:18:56.152Z,9.60
2017-11-22T09:21:23.648Z,9.70
2017-11-22T09:24:05.843Z,9.80
2017-11-22T09:26:33.347Z,9.80
2017-11-22T09:29:01.626Z,10.00
2017-11-22T09:31:34.831Z,10.00
2017-11-22T09:34:08.047Z,10.10
2017-11-22T09:36:35.574Z,10.20
2017-11-22T09:39:03.079Z,10.20
2017-11-22T09:41:30.679Z,10.30
2017-11-22T09:43:58.168Z,10.40
2017-11-22T09:46:25.658Z,10.40
2017-11-22T09:48:53.161Z,10.40
2017-11-22T09:51:21.434Z,10.40
2017-11-22T09:53:49.703Z,10.30
2017-11-22T09:56:17.978Z,10.30
2017-11-22T09:58:45.538Z,10.30
2017-11-22T10:01:13.791Z,10.20
2017-11-22T10:03:41.294Z,10.20
2017-11-22T10:06:08.778Z,10.30
2017-11-22T10:08:36.293Z,10.30
2017-11-22T10:11:04.574Z,10.30
2017-11-22T10:13:32.947Z,10.40
2017-11-22T10:16:00.437Z,10.40
2017-11-22T10:18:27.925Z,10.50
2017-11-22T10:20:55.414Z,10.50
2017-11-22T10:23:27.512Z,10.50
2017-11-22T10:25:54.997Z,10.50
2017-11-22T10:28:22.516Z,10.60
2017-11-22T10:30:50.750Z,10.70
2017-11-22T10:33:18.265Z,10.70
2017-11-22T10:35:45.755Z,10.90
2017-11-22T10:38:13.247Z,10.90
2017-11-22T10:40:40.790Z,11.00
2017-11-22T10:43:08.278Z,11.00
2017-11-22T10:45:36.536Z,10.90
2017-11-22T10:48:04.041Z,10.90
2017-11-22T10:50:31.530Z,10.90
2017-11-22T10:52:59.012Z,10.90
2017-11-22T10:55:26.702Z,10.90
2017-11-22T10:57:54.189Z,10.80
2017-11-22T11:00:21.717Z,10.80
2017-11-22T11:02:49.210Z,10.80
2017-11-22T11:05:16.720Z,10.80
2017-11-22T11:07:44.195Z,10.80
2017-11-22T11:10:13.363Z,10.80
2017-11-22T11:12:40.832Z,10.80
2017-11-22T11:15:08.328Z,10.80
2017-11-22T11:17:35.813Z,10.90
2017-11-22T11:20:03.336Z,10.90
2017-11-22T11:22:30.907Z,10.90
2017-11-22T11:24:58.410Z,11.00
2017-11-22T11:27:25.892Z,11.00
2017-11-22T11:29:54.196Z,11.00
2017-11-22T11:32:21.693Z,11.00
2017-11-22T11:34:49.175Z,11.00
2017-11-22T11:37:16.777Z,11.00
2017-11-22T11:39:44.260Z,11.00
2017-11-22T11:42:11.894Z,11.00
2017-11-22T11:44:39.395Z,11.10
2017-11-22T11:47:06.899Z,11.10
2017-11-22T11:49:34.382Z,11.10
2017-11-22T11:52:01.884Z,11.10
2017-11-22T11:54:29.472Z,11.20
2017-11-22T11:56:57.133Z,11.20
2017-11-22T11:59:24.626Z,11.30
2017-11-22T12:01:52.253Z,11.30
2017-11-22T12:04:19.740Z,11.30
2017-11-22T12:06:47.254Z,11.20
2017-11-22T12:09:14.761Z,11.20
2017-11-22T12:11:42.243Z,11.20
2017-11-22T12:14:09.746Z,11.20
2017-11-22T12:16:38.209Z,11.30
2017-11-22T12:19:06.636Z,11.30
2017-11-22T12:21:40.058Z,11.30
2017-11-22T12:24:07.567Z,11.20
2017-11-22T12:26:35.846Z,11.30
2017-11-22T12:29:03.349Z,11.30
2017-11-22T12:31:31.000Z,11.30
2017-11-22T12:33:58.479Z,11.40
2017-11-22T12:36:25.982Z,11.40
2017-11-22T12:38:54.392Z,11.50
2017-11-22T12:41:21.875Z,11.50
2017-11-22T12:43:49.371Z,11.50
2017-11-22T12:46:16.859Z,11.50
2017-11-22T12:48:44.509Z,11.50
2017-11-22T12:51:12.007Z,11.40
2017-11-22T12:53:39.510Z,11.40
2017-11-22T12:56:07.030Z,11.50
2017-11-22T12:58:34.522Z,11.40
2017-11-22T13:01:02.200Z,11.40
2017-11-22T13:03:29.874Z,11.50
2017-11-22T13:05:57.382Z,11.50
2017-11-22T13:08:25.069Z,11.50
2017-11-22T13:10:59.098Z,11.50
2017-11-22T13:13:27.357Z,11.50
2017-11-22T13:15:54.863Z,11.50
2017-11-22T13:18:22.349Z,11.50
2017-11-22T13:20:49.862Z,11.50
2017-11-22T13:23:17.464Z,11.50
2017-11-22T13:25:44.971Z,11.40
2017-11-22T13:28:12.858Z,11.40
2017-11-22T13:30:40.366Z,11.40
2017-11-22T13:33:07.875Z,11.40
2017-11-22T13:35:35.375Z,11.40
2017-11-22T13:38:02.865Z,11.40
2017-11-22T13:40:31.121Z,11.40
2017-11-22T13:42:58.619Z,11.40
2017-11-22T13:45:26.115Z,11.40
2017-11-22T13:47:53.645Z,11.30
2017-11-22T13:50:21.138Z,11.40
2017-11-22T13:52:48.745Z,11.40
2017-11-22T13:55:16.250Z,11.50
2017-11-22T13:57:43.867Z,11.50
2017-11-22T14:00:11.353Z,11.40
2017-11-22T14:02:38.965Z,11.40
2017-11-22T14:05:06.446Z,11.40
2017-11-22T14:07:33.929Z,11.40
2017-11-22T14:10:01.583Z,11.40
2017-11-22T14:12:29.308Z,11.40
2017-11-22T14:14:56.794Z,11.30
2017-11-22T14:17:24.292Z,11.30
2017-11-22T14:19:51.803Z,11.30
2017-11-22T14:22:19.487Z,11.30
2017-11-22T14:24:47.008Z,11.30
2017-11-22T14:27:14.558Z,11.30
2017-11-22T14:29:43.550Z,11.30
2017-11-22T14:32:11.837Z,11.30
2017-11-22T14:34:40.111Z,11.20
2017-11-22T14:37:07.600Z,11.20
2017-11-22T14:39:35.311Z,11.20
2017-11-22T14:42:02.807Z,11.20
2017-11-22T14:44:31.218Z,11.20
2017-11-22T14:46:58.836Z,11.20
2017-11-22T14:49:26.313Z,11.20
2017-11-22T14:51:53.825Z,11.20
2017-11-22T14:54:21.335Z,11.20
2017-11-22T14:56:49.006Z,11.20
2017-11-22T14:59:16.538Z,11.20
2017-11-22T15:01:44.844Z,11.10
2017-11-22T15:04:12.354Z,11.10
2017-11-22T15:06:39.863Z,11.10
2017-11-22T15:09:08.336Z,11.10
2017-11-22T15:11:35.830Z,11.10
2017-11-22T15:14:03.314Z,11.10
2017-11-22T15:16:30.866Z,11.10
2017-11-22T15:18:58.362Z,11.00
2017-11-22T15:21:25.858Z,11.10
2017-11-22T15:23:53.361Z,11.10
2017-11-22T15:26:21.617Z,10.90
2017-11-22T15:28:49.110Z,11.00
2017-11-22T15:31:16.758Z,10.90
2017-11-22T15:33:44.244Z,10.90
2017-11-22T15:36:11.748Z,10.90
2017-11-22T15:38:39.442Z,10.90
2017-11-22T15:41:08.084Z,10.90
2017-11-22T15:43:35.694Z,10.90
2017-11-22T15:46:03.369Z,10.90
2017-11-22T15:48:31.055Z,10.90
2017-11-22T15:50:58.554Z,10.90
2017-11-22T15:53:26.238Z,10.90
2017-11-22T15:55:54.495Z,10.90
2017-11-22T15:58:21.993Z,10.90
2017-11-22T16:00:49.467Z,10.90
2017-11-22T16:03:17.450Z,10.90
2017-11-22T16:05:44.922Z,10.90
2017-11-22T16:08:12.411Z,10.90
2017-11-22T16:10:40.695Z,10.80
2017-11-22T16:13:08.944Z,10.80
2017-11-22T16:15:36.436Z,10.80
2017-11-22T16:18:04.824Z,10.80
2017-11-22T16:20:32.309Z,10.80
2017-11-22T16:22:59.795Z,10.80
2017-11-22T16:25:27.281Z,10.80
2017-11-22T16:27:55.550Z,10.80
2017-11-22T16:30:23.127Z,10.80
2017-11-22T16:32:50.614Z,10.70
2017-11-22T16:35:18.334Z,10.70
2017-11-22T16:37:46.610Z,10.70
2017-11-22T16:40:14.872Z,10.70
2017-11-22T16:42:42.373Z,10.70
2017-11-22T16:45:10.659Z,10.70
2017-11-22T16:47:38.138Z,10.60
2017-11-22T16:50:05.647Z,10.60
2017-11-22T16:52:33.173Z,10.60
2017-11-22T16:55:00.658Z,10.60
2017-11-22T16:57:28.330Z,10.60
2017-11-22T16:59:55.810Z,10.60
2017-11-22T17:02:23.303Z,10.60
2017-11-22T17:04:50.830Z,10.50
2017-11-22T17:07:18.382Z,10.50
2017-11-22T17:09:46.758Z,10.40
2017-11-22T17:12:14.408Z,10.40
2017-11-22T17:14:41.894Z,10.40
2017-11-22T17:17:09.380Z,10.50
2017-11-22T17:19:36.874Z,10.50
2017-11-22T17:22:04.562Z,10.50
2017-11-22T17:24:32.063Z,10.50
2017-11-22T17:26:59.540Z,10.50
2017-11-22T17:29:27.129Z,10.50
2017-11-22T17:31:54.593Z,10.50
2017-11-22T17:34:22.094Z,10.50
2017-11-22T17:36:49.594Z,10.50
2017-11-22T17:39:17.079Z,10.50
2017-11-22T17:41:44.571Z,10.50
2017-11-22T17:44:12.060Z,10.40
2017-11-22T17:46:39.556Z,10.30
2017-11-22T17:49:07.093Z,10.20
2017-11-22T17:51:34.756Z,10.10
2017-11-22T17:54:02.257Z,10.00
2017-11-22T17:56:29.737Z,9.90
2017-11-22T17:58:57.254Z,9.80
2017-11-22T18:01:24.794Z,9.80
2017-11-22T18:03:52.289Z,9.70
2017-11-22T18:06:19.865Z,9.60
2017-11-22T18:08:47.361Z,9.60
2017-11-22T18:11:15.025Z,9.40
2017-11-22T18:13:42.528Z,9.40
2017-11-22T18:16:10.013Z,9.40
2017-11-22T18:18:37.599Z,9.40
2017-11-22T18:21:05.102Z,9.40
2017-11-22T18:23:32.590Z,9.40
2017-11-22T18:26:00.111Z,9.30
2017-11-22T18:28:27.679Z,9.20
2017-11-22T18:30:55.294Z,9.20
2017-11-22T18:33:23.619Z,9.20
2017-11-22T18:35:51.134Z,9.10
2017-11-22T18:38:18.655Z,9.10
2017-11-22T18:40:46.154Z,9.10
2017-11-22T18:43:14.422Z,9.00
2017-11-22T18:45:42.700Z,8.90
2017-11-22T18:48:10.176Z,8.90
2017-11-22T18:50:38.540Z,8.80
2017-11-22T18:53:06.778Z,8.80
2017-11-22T18:55:34.547Z,8.80
2017-11-22T18:58:02.090Z,8.70
2017-11-22T19:00:29.750Z,8.70
2017-11-22T19:02:57.269Z,8.70
2017-11-22T19:05:25.546Z,8.70
2017-11-22T19:07:53.819Z,8.60
2017-11-22T19:10:21.320Z,8.60
2017-11-22T19:12:48.919Z,8.70
2017-11-22T19:15:16.405Z,8.60
2017-11-22T19:17:43.904Z,8.60
2017-11-22T19:20:11.406Z,8.50
2017-11-22T19:22:39.689Z,8.50
2017-11-22T19:25:07.170Z,8.50
2017-11-22T19:27:34.700Z,8.40
2017-11-22T19:30:02.316Z,8.30
2017-11-22T19:32:29.831Z,8.30
2017-11-22T19:34:57.532Z,8.30
2017-11-22T19:37:25.176Z,8.30
2017-11-22T19:39:52.662Z,8.30
2017-11-22T19:42:20.306Z,8.30
2017-11-22T19:44:47.778Z,8.30
2017-11-22T19:47:15.268Z,8.20
2017-11-22T19:49:43.541Z,8.10
2017-11-22T19:52:11.167Z,8.10
2017-11-22T19:54:39.019Z,8.20
2017-11-22T19:57:06.594Z,8.10
2017-11-22T19:59:34.225Z,8.10
2017-11-22T20:02:02.512Z,8.10
2017-11-22T20:04:30.025Z,8.10
2017-11-22T20:07:09.254Z,8.10
2017-11-22T20:09:36.972Z,8.00
2017-11-22T20:12:04.471Z,7.90
2017-11-22T20:14:32.081Z,7.80
2017-11-22T20:16:59.592Z,7.70
2017-11-22T20:19:27.125Z,7.70
2017-11-22T20:21:55.602Z,7.60
2017-11-22T20:24:23.105Z,7.50
2017-11-22T20:26:50.585Z,7.40
2017-11-22T20:29:18.100Z,7.40
2017-11-22T20:31:45.586Z,7.50
2017-11-22T20:34:13.227Z,7.50
2017-11-22T20:36:40.763Z,7.40
2017-11-22T20:39:08.264Z,7.40
2017-11-22T20:41:35.826Z,7.50
2017-11-22T20:44:03.403Z,7.40
2017-11-22T20:46:30.979Z,7.40
2017-11-22T20:48:58.481Z,7.30
2017-11-22T20:51:26.086Z,7.30
2017-11-22T20:53:54.484Z,7.20
2017-11-22T20:56:22.293Z,7.30
2017-11-22T20:58:49.893Z,7.30
2017-11-22T21:01:18.163Z,7.30
2017-11-22T21:03:45.658Z,7.30
2017-11-22T21:06:13.170Z,7.30
2017-11-22T21:08:40.764Z,7.30
2017-11-22T21:11:08.435Z,7.20
2017-11-22T21:13:35.943Z,7.20
2017-11-22T21:16:03.447Z,7.20
2017-11-22T21:18:31.724Z,7.10
2017-11-22T21:20:59.222Z,7.20
2017-11-22T21:23:26.710Z,7.20
2017-11-22T21:25:54.267Z,7.20
2017-11-22T21:28:21.861Z,7.20
2017-11-22T21:30:49.415Z,7.20
2017-11-22T21:33:16.938Z,7.10
2017-11-22T21:35:44.430Z,7.10
2017-11-22T21:38:12.688Z,7.10
2017-11-22T21:40:40.188Z,7.10
2017-11-22T21:43:07.696Z,7.10
2017-11-22T21:45:35.371Z,7.10
2017-11-22T21:48:02.870Z,7.00
2017-11-22T21:50:30.388Z,7.00
2017-11-22T21:52:57.889Z,7.00
2017-11-22T21:55:25.384Z,7.00
2017-11-22T21:57:52.915Z,6.90
2017-11-22T22:00:20.401Z,6.90
2017-11-22T22:02:48.127Z,6.80
2017-11-22T22:05:15.646Z,6.80
2017-11-22T22:07:43.917Z,6.80
2017-11-22T22:10:11.504Z,6.80
2017-11-22T22:12:39.753Z,6.80
2017-11-22T22:15:07.346Z,6.80
2017-11-22T22:17:34.831Z,6.80
2017-11-22T22:20:02.328Z,6.70
2017-11-22T22:22:29.870Z,6.70
2017-11-22T22:24:57.391Z,6.70
2017-11-22T22:27:24.885Z,6.80
2017-11-22T22:29:52.389Z,6.80
2017-11-22T22:32:20.656Z,6.80
2017-11-22T22:34:48.918Z,6.70
2017-11-22T22:37:17.214Z,6.70
2017-11-22T22:39:45.463Z,6.60
2017-11-22T22:42:12.989Z,6.60
2017-11-22T22:44:40.538Z,6.70
2017-11-22T22:47:08.166Z,6.60
2017-11-22T22:49:35.863Z,6.60
2017-11-22T22:52:03.372Z,6.50
2017-11-22T22:54:30.869Z,6.50
2017-11-22T22:56:58.815Z,6.50
2017-11-22T22:59:26.344Z,6.40
2017-11-22T23:01:53.863Z,6.40
2017-11-22T23:04:21.507Z,6.40
2017-11-22T23:06:49.007Z,6.40
2017-11-22T23:09:16.612Z,6.50
2017-11-22T23:11:44.875Z,6.50
2017-11-22T23:14:12.505Z,6.50
2017-11-22T23:16:40.010Z,6.40
2017-11-22T23:19:07.510Z,6.40
2017-11-22T23:21:35.033Z,6.30
2017-11-22T23:24:03.414Z,6.10
2017-11-22T23:26:30.975Z,6.10
2017-11-22T23:28:59.241Z,6.00
2017-11-22T23:31:26.745Z,6.00
2017-11-22T23:33:54.244Z,6.00
2017-11-22T23:36:22.706Z,5.90
2017-11-22T23:38:50.203Z,5.90
2017-11-22T23:41:17.737Z,5.90
2017-11-22T23:43:45.235Z,5.90
2017-11-22T23:46:12.747Z,5.90
2017-11-22T23:48:40.360Z,5.90
2017-11-22T23:51:08.268Z,6.00
2017-11-22T23:53:35.755Z,6.00
2017-11-22T23:56:04.166Z,5.90
2017-11-22T23:58:31.822Z,5.90
